• Join FlightAware (Why Join?)
  • Login
  • US Flag 
12:00AM EDT


 

Airport Tracker/Info


-or-


 

Live Flight TrackerFlight Track Log ✈ N238BG ✈ 17-Jun-2014 ✈ KECG - KGVT

Flight Track Log - Related Links

Times and Time Zones

All times are in EDT time to prevent confusion due to time zone crossing. See the N238BG flight status page for this flight to view local times or setup timezone preferences in your user account.

Time Position Orientation Groundspeed Altitude Reporting Facility
EDT Latitude Longitude Course Direction KTS MPH feet Rate Location/Type
04:19PM 36.2900 -76.2003 309° West 176 203 1,200  Level Washington Center
04:20PM 36.3067 -76.2261 309° West 186 214 1,900 960 Climbing Washington Center
04:21PM 36.3356 -76.2806 303° West 251 289 2,500 1,020 Climbing Washington Center
04:22PM 36.3289 -76.3578 264° West 224 258 3,800 1,380 Climbing Washington Center
04:22PM 36.3267 -76.3808 263° West 229 264 4,600 2,280 Climbing Washington Center
04:23PM 36.3219 -76.4556 266° West 229 264 7,100 2,460 Climbing Washington Center
04:24PM 36.3153 -76.5250 263° West 218 251 9,500 2,340 Climbing Washington Center
04:25PM 36.2981 -76.5842 250° West 206 237 11,900 2,160 Climbing Washington Center
04:26PM 36.2831 -76.6381 251° West 183 211 13,800 1,560 Climbing Washington Center
04:27PM 36.2656 -76.6997 251° West 177 204 15,100 1,500 Climbing Washington Center
04:28PM 36.2506 -76.7664 254° West 195 224 16,900 1,680 Climbing Washington Center
04:29PM 36.2311 -76.8331 250° West 201 231 18,500 1,620 Climbing Washington Center
04:30PM 36.2136 -76.8947 251° West 201 231 20,200 1,320 Climbing Washington Center
04:31PM 36.1942 -76.9614 250° West 206 237 21,300 1,140 Climbing Washington Center
04:32PM 36.1725 -77.0253 247° West 206 237 22,600 1,260 Climbing Washington Center
04:33PM 36.1528 -77.0969 251° West 212 244 23,800 1,200 Climbing Washington Center
04:34PM 36.1372 -77.1764 256° West 212 244 25,000 1,080 Climbing Washington Center
04:35PM 36.1153 -77.2478 249° West 218 251 26,000 1,020 Climbing Washington Center
04:36PM 36.0956 -77.3244 252° West 230 265 27,100 960 Climbing Washington Center
04:37PM 36.0714 -77.3986 248° West 230 265 28,000 900 Climbing Washington Center
04:38PM 36.0517 -77.4753 252° West 230 265 28,900 840 Climbing Washington Center
04:39PM 36.0253 -77.5517 247° West 235 270 29,800 540 Climbing Washington Center
04:40PM 36.0031 -77.6358 252° West 248 285 30,000 60 Climbing Washington Center
04:41PM 35.9764 -77.7250 250° West 264 304 30,000  Level Washington Center
04:42PM 35.9725 -77.8300 267° West 284 327 30,000  Level Washington Center
04:43PM 35.9661 -77.9403 266° West 310 357 30,000  Level Washington Center
04:44PM 35.9575 -78.0528 265° West 322 371 30,000  Level Washington Center
04:45PM 35.9489 -78.1656 265° West 334 384 30,000  Level Washington Center
04:46PM 35.9381 -78.2781 263° West 334 384 30,000 420 Level Washington Center
04:47PM 35.9272 -78.3906 263° West 334 384 30,900 1,500 Climbing Washington Center
04:48PM 35.9208 -78.4878 265° West 314 361 33,100 1,560 Climbing Washington Center
04:49PM 35.9125 -78.5644 262° West 272 313 34,000 660 Climbing Washington Center
04:50PM 35.9022 -78.6486 261° West 253 291 34,400 480 Climbing Washington Center
04:51PM 35.8939 -78.7278 263° West 253 291 35,000 540 Climbing Washington Center
04:52PM 35.8853 -78.8147 263° West 253 291 35,500 480 Climbing Washington Center
04:53PM 35.8789 -78.8989 265° West 253 291 36,000 240 Climbing Washington Center
04:54PM 35.8719 -78.9936 265° West 259 298 36,000  Level Washington Center
04:55PM 35.8628 -79.0906 263° West 277 319 36,000  Level Washington Center
04:57PM 35.8406 -79.3281 263° West 314 361 36,000  Level Atlanta Center
04:58PM 35.8300 -79.4361 263° West 321 369 36,000  Level Atlanta Center
04:59PM 35.8178 -79.5494 262° West 327 376 36,000  Level Atlanta Center
05:00PM 35.8086 -79.6422 263° West 324 373 36,000 -60 Level Atlanta Center
05:01PM 35.7958 -79.7581 262° West 324 373 35,900 -60 Descending Atlanta Center
05:02PM 35.7872 -79.8739 265° West 335 386 35,900  Level Atlanta Center
05:03PM 35.7744 -79.9869 262° West 340 391 36,000  Climbing Atlanta Center
05:04PM 35.7636 -80.1028 263° West 345 397 35,900 300 Descending Atlanta Center
05:05PM 35.7528 -80.2183 263° West 351 404 36,600 1,020 Climbing Atlanta Center
05:06PM 35.7475 -80.3183 266° West 334 384 38,000 660 Climbing Atlanta Center
05:07PM 35.7356 -80.4136 261° West 307 353 38,000  Level Atlanta Center
05:08PM 35.7242 -80.5164 262° West 300 345 38,000  Level Atlanta Center
05:09PM 35.7103 -80.6194 261° West 300 345 38,000  Level Atlanta Center
05:10PM 35.7008 -80.7272 264° West 310 357 38,000  Level Atlanta Center
05:11PM 35.6911 -80.8375 264° West 321 369 38,000  Level Atlanta Center
05:12PM 35.6814 -80.9478 264° West 327 376 38,000 60 Level Atlanta Center
05:13PM 35.6714 -81.0531 263° West 327 376 38,200 660 Climbing Atlanta Center
05:14PM 35.6553 -81.1633 260° West 332 382 39,400 900 Climbing Atlanta Center
05:15PM 35.6472 -81.2583 264° West 309 356 40,000 300 Climbing Atlanta Center
05:16PM 35.6367 -81.3531 262° West 297 342 40,000  Level Atlanta Center
05:17PM 35.6225 -81.4736 262° West 313 360 40,000  Level Atlanta Center
05:18PM 35.6100 -81.5739 261° West 313 360 40,000  Level Atlanta Center
05:19PM 35.5975 -81.6764 261° West 313 360 40,000  Level Atlanta Center
05:20PM 35.5892 -81.7839 265° West 313 360 40,000 -60 Level Atlanta Center
05:21PM 35.5783 -81.8914 263° West 313 360 39,900 -60 Descending Atlanta Center
05:22PM 35.5508 -81.9917 251° West 313 360 39,900  Level Atlanta Center
05:23PM 35.5319 -82.0967 258° West 313 360 40,000  Climbing Atlanta Center
05:24PM 35.5231 -82.2067 264° West 318 366 39,900  Descending Atlanta Center
05:25PM 35.5078 -82.3117 260° West 323 372 40,000  Climbing Atlanta Center
05:26PM 35.4906 -82.4217 259° West 323 372 40,000  Level Atlanta Center
05:27PM 35.4775 -82.5317 262° West 323 372 40,000  Level Atlanta Center
05:28PM 35.4619 -82.6236 258° West 319 367 40,000  Level Atlanta Center
05:29PM 35.4486 -82.7436 262° West 324 373 40,000  Level Atlanta Center
05:30PM 35.4350 -82.8561 262° West 332 382 40,000 -60 Level Atlanta Center
05:31PM 35.4233 -82.9481 261° West 332 382 39,900  Descending Atlanta Center
05:32PM 35.4097 -83.0578 261° West 332 382 40,000  Climbing Atlanta Center
05:33PM 35.3981 -83.1650 262° West 332 382 40,000  Level Atlanta Center
05:34PM 35.3842 -83.2872 262° West 332 382 40,000  Level Atlanta Center
05:35PM 35.3703 -83.3969 261° West 332 382 40,000  Level Atlanta Center
05:36PM 35.3561 -83.5067 261° West 332 382 40,000 -60 Level Atlanta Center
05:37PM 35.3442 -83.6186 263° West 332 382 39,900 -60 Descending Atlanta Center
05:38PM 35.3278 -83.7256 259° West 332 382 39,900  Level Atlanta Center
05:39PM 35.3156 -83.8250 261° West 332 382 40,000  Climbing Atlanta Center
05:40PM 35.3008 -83.9319 260° West 332 382 40,000  Level Atlanta Center
05:41PM 35.2864 -84.0439 261° West 332 382 40,000  Level Atlanta Center
05:42PM 35.2717 -84.1533 261° West 332 382 40,000  Level Atlanta Center
05:43PM 35.2592 -84.2625 262° West 332 382 40,000 -60 Level Atlanta Center
05:44PM 35.2422 -84.3719 259° West 332 382 39,900 -60 Descending Atlanta Center
05:45PM 35.2272 -84.4786 260° West 332 382 39,900  Level Atlanta Center
05:46PM 35.2122 -84.5878 260° West 332 382 40,000  Climbing Atlanta Center
05:47PM 35.1992 -84.6969 262° West 332 382 40,000  Level Atlanta Center
05:48PM 35.1817 -84.8061 259° West 332 382 40,000 -60 Level Atlanta Center
05:49PM 35.1686 -84.9128 262° West 332 382 39,900  Descending Atlanta Center
05:50PM 35.1553 -85.0244 262° West 332 382 40,000  Climbing Atlanta Center
05:51PM 35.1397 -85.1308 260° West 332 382 40,000  Level Atlanta Center
05:52PM 35.1306 -85.1928 260° West 324 373 40,000 -120 Level Memphis Center
05:53PM 35.1153 -85.3003 260° West 323 372 39,900  Descending Memphis Center
05:54PM 35.1000 -85.4081 260° West 323 372 40,000  Climbing Memphis Center
05:55PM 35.0847 -85.5150 260° West 322 371 40,000 -60 Level Memphis Center
05:56PM 35.0686 -85.6214 260° West 320 368 39,900  Descending Memphis Center
05:57PM 35.0503 -85.7483 260° West 320 368 40,000  Climbing Memphis Center
05:58PM 35.0358 -85.8561 261° West 320 368 39,900  Descending Memphis Center
05:59PM 35.0217 -85.9619 261° West 319 367 40,000  Climbing Memphis Center
06:00PM 35.0047 -86.0689 259° West 319 367 40,000 -60 Level Memphis Center
06:01PM 34.9886 -86.1753 260° West 319 367 39,900  Descending Memphis Center
06:02PM 34.9703 -86.2906 259° West 319 367 40,000  Climbing Memphis Center
06:03PM 34.9542 -86.3983 260° West 320 368 39,900  Descending Memphis Center
06:04PM 34.9392 -86.5033 260° West 320 368 40,000  Climbing Memphis Center
06:05PM 34.9228 -86.6100 259° West 319 367 40,000  Level Memphis Center
06:06PM 34.9039 -86.7350 260° West 319 367 40,000  Level Memphis Center
06:07PM 34.8889 -86.8414 260° West 318 366 40,000 -60 Level Memphis Center
06:08PM 34.8717 -86.9458 259° West 318 366 39,900  Descending Memphis Center
06:09PM 34.8553 -87.0500 259° West 318 366 40,000  Climbing Memphis Center
06:11PM 34.8378 -87.1536 258° West 318 366 40,000 -60 Level Memphis Center
06:12PM 34.8183 -87.2789 259° West 317 365 39,900  Descending Memphis Center
06:13PM 34.8019 -87.3822 259° West 317 365 40,000  Climbing Memphis Center
06:14PM 34.7864 -87.4856 260° West 317 365 40,000 -60 Level Memphis Center
06:15PM 34.7711 -87.5875 260° West 314 361 39,900 -60 Descending Memphis Center
06:16PM 34.7542 -87.6900 259° West 313 360 39,900  Level Memphis Center
06:17PM 34.7342 -87.8125 259° West 313 360 40,000  Climbing Memphis Center
06:18PM 34.7175 -87.9153 259° West 313 360 40,000  Level Memphis Center
06:19PM 34.7000 -88.0183 258° West 313 360 40,000  Level Memphis Center
06:20PM 34.6825 -88.1192 258° West 312 359 40,000 -60 Level Memphis Center
06:21PM 34.6647 -88.2208 258° West 311 358 39,900  Descending Memphis Center
06:22PM 34.6431 -88.3431 258° West 311 358 40,000  Climbing Memphis Center
06:23PM 34.6264 -88.4450 259° West 311 358 39,900  Descending Memphis Center
06:24PM 34.6108 -88.5372 258° West 311 358 40,000  Climbing Memphis Center
06:25PM 34.5922 -88.6503 259° West 311 358 40,000  Level Memphis Center
06:26PM 34.5739 -88.7517 258° West 311 358 40,000  Level Memphis Center
06:27PM 34.5517 -88.8658 257° West 311 358 40,000 -60 Level Memphis Center
06:28PM 34.5342 -88.9681 258° West 311 358 39,900  Descending Memphis Center
06:29PM 34.5172 -89.0714 259° West 311 358 40,000  Climbing Memphis Center
06:30PM 34.4997 -89.1728 258° West 311 358 39,900  Descending Memphis Center
06:31PM 34.4781 -89.2983 258° West 312 359 40,000  Climbing Memphis Center
06:32PM 34.4592 -89.4003 257° West 312 359 40,000  Level Memphis Center
06:33PM 34.4411 -89.5031 258° West 312 359 40,000  Level Memphis Center
06:34PM 34.4222 -89.6061 258° West 312 359 40,000  Level Memphis Center
06:35PM 34.4036 -89.7092 258° West 312 359 40,000  Level Memphis Center
06:36PM 34.3850 -89.8117 258° West 312 359 40,000 -60 Level Memphis Center
06:37PM 34.3658 -89.9147 257° West 312 359 39,900  Descending Memphis Center
06:38PM 34.3442 -90.0381 258° West 312 359 40,000  Climbing Memphis Center
06:39PM 34.3258 -90.1403 258° West 312 359 39,900 -60 Descending Memphis Center
06:41PM 34.3067 -90.2422 257° West 312 359 39,900  Level Memphis Center
06:42PM 34.2878 -90.3444 257° West 312 359 40,000  Climbing Memphis Center
06:43PM 34.2686 -90.4447 257° West 311 358 40,000  Level Memphis Center
06:44PM 34.2500 -90.5475 258° West 311 358 40,000 -60 Level Memphis Center
06:45PM 34.2317 -90.6497 258° West 311 358 39,900  Descending Memphis Center
06:46PM 34.2083 -90.7708 257° West 311 358 40,000  Climbing Memphis Center
06:47PM 34.1892 -90.8719 257° West 311 358 40,000 -60 Level Memphis Center
06:48PM 34.1686 -90.9708 256° West 310 357 39,900  Descending Memphis Center
06:49PM 34.1503 -91.0700 257° West 308 354 40,000  Climbing Memphis Center
06:50PM 34.1311 -91.1692 257° West 306 352 39,900  Descending Memphis Center
06:51PM 34.1119 -91.2672 257° West 305 351 40,000  Climbing Memphis Center
06:52PM 34.0864 -91.3864 256° West 305 351 39,900 -60 Descending Memphis Center
06:53PM 34.0667 -91.4853 256° West 305 351 39,900  Level Memphis Center
06:54PM 34.0475 -91.5844 257° West 305 351 40,000  Climbing Memphis Center
06:55PM 34.0297 -91.6842 258° West 305 351 40,000  Level Memphis Center
06:56PM 34.0072 -91.7917 256° West 305 351 40,000 -60 Level Memphis Center
06:57PM 33.9875 -91.8925 257° West 305 351 39,900  Descending Memphis Center
06:58PM 33.9692 -91.9914 257° West 305 351 40,000  Climbing Memphis Center
06:59PM 33.9478 -92.0883 255° West 305 351 40,000 -60 Level Memphis Center
07:00PM 33.9294 -92.1847 257° West 300 345 39,900  Descending Memphis Center
07:01PM 33.9036 -92.3017 255° West 299 344 40,000  Climbing Memphis Center
07:02PM 33.8856 -92.3992 257° West 299 344 40,000  Level Memphis Center
07:03PM 33.8661 -92.4958 256° West 299 344 40,000  Level Memphis Center
07:04PM 33.8453 -92.5928 256° West 299 344 40,000 -60 Level Memphis Center
07:05PM 33.8261 -92.6881 256° West 299 344 39,900  Descending Memphis Center
07:06PM 33.8022 -92.8008 256° West 295 339 40,000  Climbing Memphis Center
07:07PM 33.7833 -92.8942 256° West 293 337 40,000 -60 Level Memphis Center
07:08PM 33.7642 -92.9875 256° West 291 335 39,900 -60 Descending Memphis Center
07:09PM 33.7442 -93.0806 256° West 291 335 39,900  Level Memphis Center
07:11PM 33.7242 -93.1744 256° West 291 335 40,000  Climbing Memphis Center
07:12PM 33.7044 -93.2692 256° West 291 335 40,000  Level Memphis Center
07:13PM 33.6789 -93.3819 255° West 291 335 40,000  Level Memphis Center
07:14PM 33.6589 -93.4767 256° West 291 335 40,000 -60 Level Memphis Center
07:15PM 33.6381 -93.5700 255° West 291 335 39,900 -60 Descending Memphis Center
07:16PM 33.6164 -93.6653 255° West 292 336 39,900  Level Memphis Center
07:17PM 33.5886 -93.8006 256° West 302 348 40,000  Climbing Fort Worth Center
07:18PM 33.5650 -93.9164 256° West 302 348 40,000  Level Fort Worth Center
07:19PM 33.5447 -94.0156 256° West 307 353 40,000  Level Fort Worth Center
07:20PM 33.5250 -94.1153 257° West 312 359 40,000  Level Fort Worth Center
07:21PM 33.5039 -94.2133 256° West 310 357 40,000 -240 Level Fort Worth Center
07:22PM 33.4800 -94.3172 255° West 324 373 39,600 -1,020 Descending Fort Worth Center
07:23PM 33.4500 -94.4456 254° West 345 397 38,000 -780 Descending Fort Worth Center
07:24PM 33.4269 -94.5539 256° West 343 395 38,000  Level Fort Worth Center
07:25PM 33.4039 -94.6575 255° West 329 379 38,000  Level Fort Worth Center
07:26PM 33.3775 -94.7611 253° West 327 376 38,000  Level Fort Worth Center
07:27PM 33.3547 -94.8575 254° West 310 357 38,000  Level Fort Worth Center
07:29PM 33.3253 -94.9761 253° West 311 358 38,000  Level Fort Worth Center
07:30PM 33.3028 -95.0756 255° West 309 356 38,000  Level Fort Worth Center
07:31PM 33.2806 -95.1747 255° West 309 356 38,000 -60 Level Fort Worth Center
07:32PM 33.2603 -95.2744 256° West 316 364 37,900 -2,640 Descending Fort Worth Center
07:33PM 33.2678 -95.3783 275° West 316 364 32,600 -6,120 Descending Fort Worth Center
07:34PM 33.2767 -95.4956 275° West 320 368 25,300 -6,540 Descending Fort Worth Center
07:35PM 33.2792 -95.6144 271° West 320 368 19,200 -5,940 Descending Fort Worth Center
07:37PM 33.2069 -95.7693 253° West  Level Estimated
07:44PM 33.0667 -96.0500 253° West  Level FlightAware Approximate
07:45PM 33.0678 -96.0653 253° West  Level Estimated
07:46PM 33.0678 -96.0653 253° West  Level Estimated
07:47PM 33.0678 -96.0653 253° West  Level Estimated
07:48PM 33.0678 -96.0653 253° West  Level Estimated
07:49PM 33.0678 -96.0653 253° West  Level Estimated
07:50PM 33.0678 -96.0653 253° West  Level Estimated
07:51PM 33.0678 -96.0653 253° West  Level Estimated
07:52PM 33.0678 -96.0653 253° West  Level Estimated
07:53PM 33.0678 -96.0653 253° West  Level Estimated
07:54PM 33.0678 -96.0653 253° West  Level Estimated
07:55PM 33.0678 -96.0653 253° West  Level Estimated
07:56PM 33.0678 -96.0653 253° West  Level Estimated
07:57PM 33.0678 -96.0653 253° West  Level Estimated
07:58PM 33.0678 -96.0653 253° West  Level Estimated